createdAt,value
2019-04-29T00:01:40.884Z,13.87
2019-04-29T00:04:10.377Z,13.17
2019-04-29T00:06:39.910Z,15.23
2019-04-29T00:09:14.083Z,14.20
2019-04-29T00:11:43.969Z,13.87
2019-04-29T00:14:13.934Z,14.90
2019-04-29T00:16:47.773Z,13.40
2019-04-29T00:19:30.831Z,13.90
2019-04-29T00:22:01.186Z,13.37
2019-04-29T00:24:30.677Z,13.43
2019-04-29T00:27:00.116Z,12.37
2019-04-29T00:29:29.797Z,13.37
2019-04-29T00:32:01.683Z,11.37
2019-04-29T00:34:32.396Z,12.20
2019-04-29T00:37:12.227Z,11.67
2019-04-29T00:40:01.466Z,10.27
2019-04-29T00:42:47.565Z,10.70
2019-04-29T00:45:18.027Z,9.83
2019-04-29T00:47:47.376Z,9.90
2019-04-29T00:50:17.135Z,9.97
2019-04-29T00:52:46.657Z,10.27
2019-04-29T00:55:17.727Z,12.53
2019-04-29T00:57:47.146Z,12.63
2019-04-29T01:00:18.607Z,12.90
2019-04-29T01:02:47.952Z,12.77
2019-04-29T01:05:21.065Z,13.83
2019-04-29T01:07:51.970Z,12.33
2019-04-29T01:10:21.374Z,12.27
2019-04-29T01:12:50.728Z,11.83
2019-04-29T01:15:20.359Z,11.00
2019-04-29T01:17:49.792Z,10.63
2019-04-29T01:20:19.562Z,11.70
2019-04-29T01:22:51.781Z,11.07
2019-04-29T01:25:21.210Z,9.87
2019-04-29T01:27:53.393Z,11.00
2019-04-29T01:30:41.205Z,10.87
2019-04-29T01:33:10.658Z,11.23
2019-04-29T01:35:40.423Z,12.47
2019-04-29T01:38:09.904Z,11.67
2019-04-29T01:40:48.434Z,13.53
2019-04-29T01:43:17.839Z,13.23
2019-04-29T01:45:48.791Z,14.67
2019-04-29T01:48:18.223Z,13.63
2019-04-29T01:50:47.691Z,14.80
2019-04-29T01:53:17.125Z,16.27
2019-04-29T01:55:46.540Z,15.20
2019-04-29T01:58:16.247Z,15.03
2019-04-29T02:00:45.955Z,15.70
2019-04-29T02:03:15.390Z,14.03
2019-04-29T02:05:44.850Z,14.80
2019-04-29T02:08:15.243Z,13.83
2019-04-29T02:10:44.613Z,11.07
2019-04-29T02:13:14.391Z,10.33
2019-04-29T02:15:44.712Z,10.30
2019-04-29T02:18:15.005Z,8.87
2019-04-29T02:20:44.389Z,11.73
2019-04-29T02:23:15.461Z,11.00
2019-04-29T02:25:46.935Z,12.53
2019-04-29T02:28:16.638Z,12.50
2019-04-29T02:30:48.535Z,12.47
2019-04-29T02:33:18.048Z,11.40
2019-04-29T02:35:48.704Z,9.60
2019-04-29T02:38:19.772Z,9.63
2019-04-29T02:40:53.531Z,8.63
2019-04-29T02:43:40.807Z,8.53
2019-04-29T02:46:10.173Z,8.87
2019-04-29T02:48:39.617Z,8.30
2019-04-29T02:51:09.613Z,8.73
2019-04-29T02:53:39.118Z,8.47
2019-04-29T02:56:08.597Z,9.00
2019-04-29T02:58:43.456Z,8.43
2019-04-29T03:01:32.548Z,7.73
2019-04-29T03:04:05.604Z,7.90
2019-04-29T03:06:35.087Z,7.37
2019-04-29T03:09:06.944Z,8.20
2019-04-29T03:11:41.215Z,8.00
2019-04-29T03:14:10.793Z,7.47
2019-04-29T03:16:42.745Z,7.60
2019-04-29T03:19:13.721Z,7.40
2019-04-29T03:21:47.732Z,8.07
2019-04-29T03:24:17.555Z,8.67
2019-04-29T03:26:48.535Z,7.97
2019-04-29T03:29:23.884Z,7.73
2019-04-29T03:31:54.199Z,7.17
2019-04-29T03:34:24.109Z,7.50
2019-04-29T03:36:53.946Z,7.10
2019-04-29T03:39:23.402Z,7.70
2019-04-29T03:41:52.892Z,7.03
2019-04-29T03:44:24.754Z,6.43
2019-04-29T03:46:54.246Z,6.87
2019-04-29T03:49:24.867Z,8.07
2019-04-29T03:51:54.284Z,8.17
2019-04-29T03:54:25.285Z,7.37
2019-04-29T03:56:54.976Z,8.00
2019-04-29T03:59:24.442Z,8.63
2019-04-29T04:01:58.506Z,8.13
2019-04-29T04:04:45.900Z,9.17
2019-04-29T04:07:29.620Z,8.87
2019-04-29T04:10:01.975Z,8.27
2019-04-29T04:12:31.512Z,7.87
2019-04-29T04:15:02.546Z,8.07
2019-04-29T04:17:38.930Z,8.17
2019-04-29T04:20:09.938Z,7.60
2019-04-29T04:22:43.737Z,7.43
2019-04-29T04:25:13.275Z,7.97
2019-04-29T04:27:43.527Z,7.47
2019-04-29T04:30:14.678Z,7.80
2019-04-29T04:32:44.521Z,7.57
2019-04-29T04:35:15.736Z,6.93
2019-04-29T04:37:46.384Z,8.43
2019-04-29T04:40:29.766Z,7.40
2019-04-29T04:42:59.241Z,7.40
2019-04-29T04:45:28.644Z,7.80
2019-04-29T04:47:58.084Z,8.50
2019-04-29T04:50:27.549Z,8.70
2019-04-29T04:52:57.061Z,8.80
2019-04-29T04:55:32.157Z,8.37
2019-04-29T04:58:01.759Z,9.53
2019-04-29T05:00:34.804Z,9.07
2019-04-29T05:03:04.081Z,9.53
2019-04-29T05:05:33.623Z,9.43
2019-04-29T05:08:04.499Z,10.40
2019-04-29T05:10:33.884Z,10.67
2019-04-29T05:13:03.459Z,10.00
2019-04-29T05:15:32.833Z,10.43
2019-04-29T05:18:02.286Z,10.83
2019-04-29T05:20:31.660Z,10.20
2019-04-29T05:23:01.086Z,10.37
2019-04-29T05:25:31.864Z,9.80
2019-04-29T05:28:03.041Z,11.23
2019-04-29T05:30:33.393Z,10.50
2019-04-29T05:33:02.909Z,11.73
2019-04-29T05:35:50.190Z,11.73
2019-04-29T05:38:36.292Z,11.03
2019-04-29T05:41:05.751Z,10.00
2019-04-29T05:43:36.821Z,10.47
2019-04-29T05:46:17.342Z,10.30
2019-04-29T05:48:45.030Z,11.37
2019-04-29T05:51:17.582Z,11.43
2019-04-29T05:53:57.651Z,10.33
2019-04-29T05:56:31.137Z,10.83
2019-04-29T05:59:00.501Z,10.77
2019-04-29T06:01:31.248Z,9.83
2019-04-29T06:04:00.610Z,10.33
2019-04-29T06:06:30.047Z,9.47
2019-04-29T06:08:59.522Z,10.37
2019-04-29T06:11:28.976Z,10.07
2019-04-29T06:13:59.161Z,9.43
2019-04-29T06:16:28.725Z,10.07
2019-04-29T06:19:00.437Z,10.60
2019-04-29T06:21:29.495Z,10.27
2019-04-29T06:23:59.239Z,11.73
2019-04-29T06:26:31.752Z,10.77
2019-04-29T06:29:01.719Z,13.60
2019-04-29T06:31:32.743Z,14.70
2019-04-29T06:34:05.251Z,15.93
2019-04-29T06:36:33.375Z,13.93
2019-04-29T06:39:02.899Z,18.40
2019-04-29T06:41:33.864Z,18.73
2019-04-29T06:44:06.725Z,19.87
2019-04-29T06:46:34.762Z,15.93
2019-04-29T06:49:10.432Z,14.90
2019-04-29T06:51:37.195Z,13.83
2019-04-29T06:54:06.890Z,13.97
2019-04-29T06:56:36.588Z,13.83
2019-04-29T06:59:07.502Z,13.47
2019-04-29T07:01:38.680Z,12.60
2019-04-29T07:04:08.480Z,12.73
2019-04-29T07:06:38.046Z,13.63
2019-04-29T07:09:09.566Z,13.43
2019-04-29T07:11:40.361Z,13.93
2019-04-29T07:14:09.940Z,14.60
2019-04-29T07:16:39.559Z,13.63
2019-04-29T07:19:09.007Z,13.73
2019-04-29T07:21:41.859Z,14.23
2019-04-29T07:24:09.570Z,13.57
2019-04-29T07:26:39.174Z,13.20
2019-04-29T07:29:08.639Z,14.70
2019-04-29T07:31:38.124Z,13.80
2019-04-29T07:34:08.568Z,15.07
2019-04-29T07:36:38.046Z,16.07
2019-04-29T07:39:07.985Z,15.77
2019-04-29T07:41:40.383Z,16.13
2019-04-29T07:44:13.733Z,15.10
2019-04-29T07:46:56.774Z,15.80
2019-04-29T07:49:20.983Z,15.90
2019-04-29T07:51:51.597Z,16.97
2019-04-29T07:54:21.086Z,15.13
2019-04-29T07:56:50.928Z,14.60
2019-04-29T07:59:20.507Z,15.77
2019-04-29T08:01:51.003Z,15.27
2019-04-29T08:04:20.893Z,15.23
2019-04-29T08:06:50.632Z,15.47
2019-04-29T08:09:20.253Z,14.87
2019-04-29T08:11:50.731Z,15.60
2019-04-29T08:14:22.245Z,15.97
2019-04-29T08:16:53.908Z,16.60
2019-04-29T08:19:24.625Z,15.93
2019-04-29T08:21:54.992Z,17.00
2019-04-29T08:24:25.088Z,15.57
2019-04-29T08:26:54.797Z,17.03
2019-04-29T08:29:24.632Z,17.00
2019-04-29T08:31:57.314Z,17.97
2019-04-29T08:34:25.450Z,17.47
2019-04-29T08:36:55.067Z,17.33
2019-04-29T08:39:24.998Z,17.97
2019-04-29T08:41:58.925Z,18.23
2019-04-29T08:44:31.969Z,19.23
2019-04-29T08:47:15.538Z,18.60
2019-04-29T08:49:51.311Z,17.43
2019-04-29T08:52:16.240Z,17.27
2019-04-29T08:54:45.791Z,17.57
2019-04-29T08:57:16.039Z,16.23
2019-04-29T08:59:45.597Z,17.50
2019-04-29T09:02:15.151Z,17.00
2019-04-29T09:04:53.877Z,16.77
2019-04-29T09:07:22.211Z,17.50
2019-04-29T09:09:51.336Z,15.67
2019-04-29T09:12:23.777Z,16.30
2019-04-29T09:14:52.620Z,14.90
2019-04-29T09:17:22.129Z,16.47
2019-04-29T09:19:51.717Z,16.23
2019-04-29T09:22:22.832Z,13.53
2019-04-29T09:25:11.939Z,13.37
2019-04-29T09:27:44.942Z,14.73
2019-04-29T09:30:16.231Z,14.53
2019-04-29T09:32:45.795Z,14.43
2019-04-29T09:35:15.461Z,14.40
2019-04-29T09:37:45.015Z,13.57
2019-04-29T09:40:20.821Z,13.47
2019-04-29T09:42:57.023Z,13.10
2019-04-29T09:45:30.150Z,12.20
2019-04-29T09:47:59.511Z,12.37
2019-04-29T09:50:29.033Z,12.43
2019-04-29T09:52:58.506Z,12.00
2019-04-29T09:55:27.930Z,12.10
2019-04-29T09:57:57.408Z,12.73
2019-04-29T10:00:41.834Z,12.27
2019-04-29T10:03:15.828Z,10.50
2019-04-29T10:05:49.611Z,10.90
2019-04-29T10:08:19.040Z,11.07
2019-04-29T10:10:48.498Z,10.70
2019-04-29T10:13:18.277Z,10.90
2019-04-29T10:16:01.820Z,9.97
2019-04-29T10:18:33.194Z,9.77
2019-04-29T10:21:07.432Z,8.53
2019-04-29T10:23:36.964Z,9.40
2019-04-29T10:26:06.458Z,9.30
2019-04-29T10:28:38.451Z,10.83
2019-04-29T10:31:09.581Z,11.73
2019-04-29T10:33:39.355Z,9.97
2019-04-29T10:36:08.915Z,9.87
2019-04-29T10:38:40.404Z,9.57
2019-04-29T10:41:28.036Z,9.33
2019-04-29T10:43:59.275Z,10.43
2019-04-29T10:46:42.350Z,11.83
2019-04-29T10:49:34.763Z,11.87
2019-04-29T10:52:04.782Z,10.53
2019-04-29T10:54:35.517Z,9.83
2019-04-29T10:57:05.580Z,9.80
2019-04-29T10:59:36.713Z,9.97
2019-04-29T11:02:15.922Z,9.93
2019-04-29T11:04:47.355Z,10.40
2019-04-29T11:07:36.555Z,9.23
2019-04-29T11:10:24.979Z,10.30
2019-04-29T11:12:47.796Z,9.43
2019-04-29T11:15:19.185Z,9.60
2019-04-29T11:17:58.409Z,9.43
2019-04-29T11:20:21.722Z,8.70
2019-04-29T11:22:53.277Z,9.67
2019-04-29T11:25:41.168Z,9.87
2019-04-29T11:28:12.060Z,8.83
2019-04-29T11:30:41.918Z,9.15
2019-04-29T11:33:29.540Z,8.65
2019-04-29T11:36:05.493Z,8.57
2019-04-29T11:38:38.327Z,9.33
2019-04-29T11:41:11.742Z,7.97
2019-04-29T11:43:39.473Z,9.75
2019-04-29T11:46:09.880Z,9.75
2019-04-29T11:48:40.497Z,10.20
2019-04-29T11:51:14.838Z,10.10
2019-04-29T11:53:44.703Z,8.93
2019-04-29T11:56:14.177Z,8.87
2019-04-29T11:58:59.962Z,9.65
2019-04-29T12:01:38.796Z,9.65
2019-04-29T12:04:19.095Z,9.88
2019-04-29T12:06:51.346Z,9.58
2019-04-29T12:09:19.744Z,9.43
2019-04-29T12:11:49.287Z,9.85
2019-04-29T12:14:37.968Z,9.40
2019-04-29T12:17:08.581Z,9.25
2019-04-29T12:19:45.162Z,9.63
2019-04-29T12:22:26.898Z,8.95
2019-04-29T12:24:45.737Z,7.80
2019-04-29T12:27:19.873Z,8.20
2019-04-29T12:29:48.862Z,8.30
2019-04-29T12:32:26.651Z,8.13
2019-04-29T12:34:57.821Z,7.35
2019-04-29T12:37:38.264Z,6.80
2019-04-29T12:40:27.226Z,6.80
2019-04-29T12:43:04.130Z,7.15
2019-04-29T12:45:41.404Z,6.60
2019-04-29T12:48:23.994Z,7.37
2019-04-29T12:50:41.990Z,7.65
2019-04-29T12:53:11.387Z,7.23
2019-04-29T12:55:49.435Z,7.60
2019-04-29T12:58:19.364Z,7.35
2019-04-29T13:00:55.860Z,7.20
2019-04-29T13:03:30.361Z,7.37
2019-04-29T13:06:02.649Z,7.20
2019-04-29T13:08:43.848Z,6.97
2019-04-29T13:11:14.728Z,8.65
2019-04-29T13:13:44.508Z,8.60
2019-04-29T13:16:20.235Z,8.60
2019-04-29T13:19:12.510Z,7.92
2019-04-29T13:21:39.624Z,7.62
2019-04-29T13:24:22.106Z,7.33
2019-04-29T13:26:42.979Z,8.30
2019-04-29T13:29:25.982Z,8.85
2019-04-29T13:31:42.534Z,9.73
2019-04-29T13:34:23.849Z,8.83
2019-04-29T13:36:44.769Z,8.28
2019-04-29T13:39:14.555Z,7.37
2019-04-29T13:41:57.152Z,7.17
2019-04-29T13:44:19.376Z,7.47
2019-04-29T13:47:04.531Z,6.92
2019-04-29T13:49:53.586Z,8.50
2019-04-29T13:52:23.529Z,9.33
2019-04-29T13:54:53.197Z,7.35
2019-04-29T13:57:22.703Z,7.90
2019-04-29T13:59:59.770Z,8.10
2019-04-29T14:02:36.228Z,7.45
2019-04-29T14:05:06.839Z,7.95
2019-04-29T14:07:39.228Z,7.00
2019-04-29T14:10:10.198Z,8.95
2019-04-29T14:12:48.369Z,8.15
2019-04-29T14:15:11.394Z,9.57
2019-04-29T14:17:40.845Z,8.45
2019-04-29T14:20:15.222Z,7.83
2019-04-29T14:22:41.914Z,8.23
2019-04-29T14:25:13.639Z,8.08
2019-04-29T14:27:43.586Z,8.10
2019-04-29T14:30:15.942Z,7.90
2019-04-29T14:32:46.959Z,7.70
2019-04-29T14:35:21.770Z,8.63
2019-04-29T14:37:55.532Z,8.15
2019-04-29T14:40:22.320Z,8.30
2019-04-29T14:43:02.914Z,9.03
2019-04-29T14:45:34.998Z,10.53
2019-04-29T14:48:06.368Z,9.40
2019-04-29T14:50:35.862Z,8.53
2019-04-29T14:53:05.302Z,9.25
2019-04-29T14:55:34.700Z,8.20
2019-04-29T14:58:04.331Z,7.87
2019-04-29T15:00:42.620Z,8.70
2019-04-29T15:03:12.285Z,9.05
2019-04-29T15:05:41.773Z,9.28
2019-04-29T15:08:11.297Z,9.40
2019-04-29T15:10:41.572Z,9.73
2019-04-29T15:13:20.617Z,9.60
2019-04-29T15:16:03.797Z,9.85
2019-04-29T15:18:47.171Z,9.40
2019-04-29T15:21:32.234Z,8.85
2019-04-29T15:23:54.156Z,9.48
2019-04-29T15:26:23.877Z,8.68
2019-04-29T15:28:53.252Z,9.90
2019-04-29T15:31:23.917Z,8.80
2019-04-29T15:33:53.687Z,9.75
2019-04-29T15:36:23.145Z,10.05
2019-04-29T15:39:08.776Z,9.85
2019-04-29T15:41:29.820Z,11.15
2019-04-29T15:44:06.510Z,9.08
2019-04-29T15:46:26.129Z,9.98
2019-04-29T15:48:55.675Z,9.53
2019-04-29T15:51:25.045Z,10.15
2019-04-29T15:53:54.607Z,10.35
2019-04-29T15:56:28.868Z,10.55
2019-04-29T15:58:59.706Z,11.03
2019-04-29T16:01:28.353Z,9.93
2019-04-29T16:03:58.933Z,9.70
2019-04-29T16:06:33.979Z,8.80
2019-04-29T16:09:14.818Z,9.60
2019-04-29T16:11:49.248Z,9.18
2019-04-29T16:14:20.340Z,9.73
2019-04-29T16:16:49.768Z,10.48
2019-04-29T16:19:19.209Z,10.13
2019-04-29T16:21:48.674Z,9.40
2019-04-29T16:26:53.478Z,8.45
2019-04-29T16:29:20.175Z,10.68
2019-04-29T16:31:49.607Z,10.98
2019-04-29T16:34:19.047Z,10.63
2019-04-29T16:36:49.971Z,10.10
2019-04-29T16:39:19.927Z,10.75
2019-04-29T16:42:07.542Z,10.85
2019-04-29T16:44:38.547Z,11.85
2019-04-29T16:47:13.120Z,11.22
2019-04-29T16:49:45.581Z,11.40
2019-04-29T16:52:15.236Z,12.07
2019-04-29T16:54:45.665Z,11.93
2019-04-29T16:57:15.067Z,12.25
2019-04-29T16:59:44.504Z,12.30
2019-04-29T17:02:19.101Z,11.40
2019-04-29T17:04:45.038Z,10.90
2019-04-29T17:07:15.965Z,11.93
2019-04-29T17:09:50.763Z,10.38
2019-04-29T17:12:20.228Z,11.00
2019-04-29T17:15:03.823Z,10.55
2019-04-29T17:17:28.822Z,11.25
2019-04-29T17:19:55.165Z,10.60
2019-04-29T17:22:27.628Z,10.30
2019-04-29T17:24:57.872Z,9.90
2019-04-29T17:27:28.952Z,9.83
2019-04-29T17:30:09.488Z,10.48
2019-04-29T17:32:44.379Z,10.32
2019-04-29T17:35:12.973Z,11.00
2019-04-29T17:35:18.961Z,9.70
2019-04-29T17:37:42.505Z,10.48
2019-04-29T17:40:14.518Z,10.40
2019-04-29T17:42:45.648Z,9.75
2019-04-29T17:45:27.062Z,9.38
2019-04-29T17:47:55.292Z,9.27
2019-04-29T17:50:45.980Z,9.75
2019-04-29T17:53:11.190Z,8.80
2019-04-29T17:55:45.332Z,8.48
2019-04-29T17:58:19.454Z,8.30
2019-04-29T18:00:59.679Z,8.33
2019-04-29T18:03:43.142Z,8.88
2019-04-29T18:06:18.810Z,8.30
2019-04-29T18:08:56.063Z,8.25
2019-04-29T18:11:25.924Z,8.90
2019-04-29T18:13:56.874Z,9.00
2019-04-29T18:16:28.531Z,8.85
2019-04-29T18:19:02.370Z,9.08
2019-04-29T18:21:50.230Z,8.70
2019-04-29T18:24:25.377Z,8.33
2019-04-29T18:27:05.575Z,8.45
2019-04-29T18:29:41.372Z,9.13
2019-04-29T18:32:08.064Z,10.08
2019-04-29T18:34:37.519Z,10.43
2019-04-29T18:37:08.148Z,9.10
2019-04-29T18:39:38.150Z,8.98
2019-04-29T18:42:07.735Z,9.48
2019-04-29T18:44:40.554Z,9.43
2019-04-29T18:47:20.014Z,8.48
2019-04-29T18:49:47.948Z,7.58
2019-04-29T18:52:25.398Z,7.53
2019-04-29T18:54:48.728Z,6.95
2019-04-29T18:57:27.900Z,6.83
2019-04-29T18:59:49.197Z,7.58
2019-04-29T19:02:18.660Z,7.33
2019-04-29T19:04:56.553Z,6.87
2019-04-29T19:07:31.851Z,6.70
2019-04-29T19:10:01.871Z,6.30
2019-04-29T19:12:31.514Z,6.25
2019-04-29T19:15:04.904Z,6.45
2019-04-29T19:17:36.784Z,5.95
2019-04-29T19:20:08.719Z,5.95
2019-04-29T19:22:36.092Z,6.23
2019-04-29T19:25:10.418Z,6.07
2019-04-29T19:27:39.966Z,6.03
2019-04-29T19:30:09.328Z,5.92
2019-04-29T19:32:39.269Z,5.97
2019-04-29T19:35:11.222Z,6.33
2019-04-29T19:37:40.467Z,7.43
2019-04-29T19:40:11.375Z,5.60
2019-04-29T19:42:41.008Z,5.90
2019-04-29T19:45:13.071Z,5.90
2019-04-29T19:47:47.402Z,6.13
2019-04-29T19:50:16.634Z,6.67
2019-04-29T19:52:47.483Z,6.20
2019-04-29T19:55:16.986Z,6.23
2019-04-29T19:57:47.991Z,5.87
2019-04-29T20:00:18.503Z,5.83
2019-04-29T20:02:50.236Z,5.90
2019-04-29T20:05:31.703Z,6.90
2019-04-29T20:07:59.290Z,5.70
2019-04-29T20:10:30.406Z,5.00
2019-04-29T20:13:00.697Z,6.43
2019-04-29T20:15:36.747Z,5.57
2019-04-29T20:18:07.768Z,5.93
2019-04-29T20:20:43.061Z,6.83
2019-04-29T20:23:12.667Z,5.83
2019-04-29T20:25:42.281Z,6.17
2019-04-29T20:28:17.278Z,6.37
2019-04-29T20:30:43.218Z,5.97
2019-04-29T20:33:13.067Z,5.73
2019-04-29T20:35:45.354Z,6.53
2019-04-29T20:38:15.557Z,7.22
2019-04-29T20:40:46.574Z,6.60
2019-04-29T20:43:20.392Z,6.97
2019-04-29T20:45:47.433Z,6.87
2019-04-29T20:48:19.588Z,6.30
2019-04-29T20:50:52.876Z,6.27
2019-04-29T20:53:23.279Z,5.97
2019-04-29T20:55:52.837Z,6.07
2019-04-29T20:58:23.561Z,6.70
2019-04-29T21:00:58.337Z,6.90
2019-04-29T21:03:29.920Z,6.13
2019-04-29T21:06:02.686Z,7.30
2019-04-29T21:08:27.181Z,6.93
2019-04-29T21:10:58.227Z,7.35
2019-04-29T21:13:41.378Z,6.97
2019-04-29T21:16:12.416Z,7.67
2019-04-29T21:18:45.520Z,7.00
2019-04-29T21:21:12.928Z,7.33
2019-04-29T21:23:42.615Z,7.67
2019-04-29T21:26:12.119Z,6.93
2019-04-29T21:28:44.631Z,7.57
2019-04-29T21:31:16.643Z,8.08
2019-04-29T21:33:45.604Z,7.97
2019-04-29T21:36:17.798Z,8.00
2019-04-29T21:38:48.811Z,8.27
2019-04-29T21:41:27.394Z,9.00
2019-04-29T21:43:57.058Z,10.20
2019-04-29T21:46:29.480Z,8.60
2019-04-29T21:48:57.584Z,8.47
2019-04-29T21:51:27.042Z,9.33
2019-04-29T21:53:56.478Z,8.80
2019-04-29T21:56:25.930Z,8.53
2019-04-29T21:58:55.394Z,9.13
2019-04-29T22:01:25.234Z,9.03
2019-04-29T22:03:57.651Z,9.20
2019-04-29T22:06:29.094Z,8.30
2019-04-29T22:09:01.606Z,8.43
2019-04-29T22:11:28.073Z,8.97
2019-04-29T22:13:57.577Z,8.97
2019-04-29T22:16:27.779Z,9.43
2019-04-29T22:18:57.336Z,10.55
2019-04-29T22:21:26.770Z,10.70
2019-04-29T22:23:56.133Z,11.40
2019-04-29T22:26:26.895Z,10.43
2019-04-29T22:29:01.738Z,10.68
2019-04-29T22:31:33.818Z,11.47
2019-04-29T22:33:58.893Z,10.43
2019-04-29T22:36:28.318Z,9.17
2019-04-29T22:38:57.667Z,10.37
2019-04-29T22:41:28.970Z,10.70
2019-04-29T22:44:06.185Z,11.63
2019-04-29T22:46:35.781Z,10.63
2019-04-29T22:49:05.843Z,11.70
2019-04-29T22:51:35.580Z,11.87
2019-04-29T22:54:06.091Z,11.73
2019-04-29T22:56:36.065Z,11.17
2019-04-29T22:59:05.861Z,12.40
2019-04-29T23:01:36.389Z,11.80
2019-04-29T23:04:09.569Z,12.43
2019-04-29T23:06:39.821Z,12.43
2019-04-29T23:09:11.987Z,11.70
2019-04-29T23:11:40.761Z,12.03
2019-04-29T23:14:10.415Z,12.40
2019-04-29T23:16:39.999Z,13.03
2019-04-29T23:19:14.034Z,12.60
2019-04-29T23:21:52.494Z,12.80
2019-04-29T23:24:29.380Z,13.50
2019-04-29T23:26:59.171Z,14.17
2019-04-29T23:29:28.619Z,13.83
2019-04-29T23:32:04.747Z,13.00
2019-04-29T23:46:07.166Z,14.87
2019-04-29T23:48:39.540Z,14.13
2019-04-29T23:51:08.355Z,15.20
2019-04-29T23:53:38.009Z,15.30
2019-04-29T23:56:09.691Z,16.63
2019-04-29T23:58:40.493Z,15.23
